sensor_id;sensor_type;location;lat;lon;timestamp;P1;durP1;ratioP1;P2;durP2;ratioP2
15412;SDS011;7805;49.554;7.632;2023-04-24T00:00:45;2.63;;;1.00;;
15412;SDS011;7805;49.554;7.632;2023-04-24T00:03:11;2.57;;;1.40;;
15412;SDS011;7805;49.554;7.632;2023-04-24T00:05:37;4.70;;;1.50;;
15412;SDS011;7805;49.554;7.632;2023-04-24T00:08:05;3.30;;;1.30;;
15412;SDS011;7805;49.554;7.632;2023-04-24T00:10:31;2.27;;;1.13;;
15412;SDS011;7805;49.554;7.632;2023-04-24T00:12:56;3.10;;;1.13;;
15412;SDS011;7805;49.554;7.632;2023-04-24T00:15:22;1.63;;;0.90;;
15412;SDS011;7805;49.554;7.632;2023-04-24T00:17:48;2.83;;;1.13;;
15412;SDS011;7805;49.554;7.632;2023-04-24T00:20:13;1.23;;;1.13;;
15412;SDS011;7805;49.554;7.632;2023-04-24T00:22:39;2.20;;;1.17;;
15412;SDS011;7805;49.554;7.632;2023-04-24T00:25:05;2.90;;;1.00;;
15412;SDS011;7805;49.554;7.632;2023-04-24T00:27:31;2.97;;;1.50;;
15412;SDS011;7805;49.554;7.632;2023-04-24T00:29:56;2.27;;;1.10;;
15412;SDS011;7805;49.554;7.632;2023-04-24T00:32:22;1.90;;;1.10;;
15412;SDS011;7805;49.554;7.632;2023-04-24T00:34:47;2.23;;;0.90;;
15412;SDS011;7805;49.554;7.632;2023-04-24T00:37:13;1.70;;;1.30;;
15412;SDS011;7805;49.554;7.632;2023-04-24T00:39:39;2.87;;;1.10;;
15412;SDS011;7805;49.554;7.632;2023-04-24T00:42:04;2.47;;;1.20;;
15412;SDS011;7805;49.554;7.632;2023-04-24T00:44:31;3.83;;;0.93;;
15412;SDS011;7805;49.554;7.632;2023-04-24T00:46:59;1.30;;;0.90;;
15412;SDS011;7805;49.554;7.632;2023-04-24T00:49:25;0.90;;;0.90;;
15412;SDS011;7805;49.554;7.632;2023-04-24T00:51:51;1.27;;;1.17;;
15412;SDS011;7805;49.554;7.632;2023-04-24T00:54:19;3.63;;;1.17;;
15412;SDS011;7805;49.554;7.632;2023-04-24T00:56:45;1.70;;;1.10;;
15412;SDS011;7805;49.554;7.632;2023-04-24T00:59:16;2.60;;;0.93;;
15412;SDS011;7805;49.554;7.632;2023-04-24T01:01:42;1.87;;;1.37;;
15412;SDS011;7805;49.554;7.632;2023-04-24T01:04:09;1.23;;;1.00;;
15412;SDS011;7805;49.554;7.632;2023-04-24T01:06:37;5.30;;;1.30;;
15412;SDS011;7805;49.554;7.632;2023-04-24T01:09:04;2.47;;;0.87;;
15412;SDS011;7805;49.554;7.632;2023-04-24T01:11:30;1.00;;;0.90;;
15412;SDS011;7805;49.554;7.632;2023-04-24T01:13:56;2.83;;;0.80;;
15412;SDS011;7805;49.554;7.632;2023-04-24T01:16:23;0.83;;;0.80;;
15412;SDS011;7805;49.554;7.632;2023-04-24T01:18:48;1.87;;;0.50;;
15412;SDS011;7805;49.554;7.632;2023-04-24T01:21:14;1.17;;;0.80;;
15412;SDS011;7805;49.554;7.632;2023-04-24T01:23:45;1.20;;;0.60;;
15412;SDS011;7805;49.554;7.632;2023-04-24T01:26:11;0.50;;;0.50;;
15412;SDS011;7805;49.554;7.632;2023-04-24T01:28:38;2.20;;;0.40;;
15412;SDS011;7805;49.554;7.632;2023-04-24T01:31:03;0.97;;;0.97;;
15412;SDS011;7805;49.554;7.632;2023-04-24T01:33:29;0.60;;;0.60;;
15412;SDS011;7805;49.554;7.632;2023-04-24T01:35:55;1.87;;;0.70;;
15412;SDS011;7805;49.554;7.632;2023-04-24T01:38:22;0.67;;;0.50;;
15412;SDS011;7805;49.554;7.632;2023-04-24T01:40:47;3.10;;;0.70;;
15412;SDS011;7805;49.554;7.632;2023-04-24T01:43:14;3.13;;;0.80;;
15412;SDS011;7805;49.554;7.632;2023-04-24T01:45:40;1.13;;;0.50;;
15412;SDS011;7805;49.554;7.632;2023-04-24T01:48:06;3.87;;;0.73;;
15412;SDS011;7805;49.554;7.632;2023-04-24T01:50:31;1.90;;;0.77;;
15412;SDS011;7805;49.554;7.632;2023-04-24T01:52:57;0.83;;;0.80;;
15412;SDS011;7805;49.554;7.632;2023-04-24T01:55:22;1.53;;;0.90;;
15412;SDS011;7805;49.554;7.632;2023-04-24T01:57:48;1.47;;;1.00;;
15412;SDS011;7805;49.554;7.632;2023-04-24T02:00:14;1.40;;;1.10;;
15412;SDS011;7805;49.554;7.632;2023-04-24T02:02:40;1.33;;;1.23;;
15412;SDS011;7805;49.554;7.632;2023-04-24T02:05:07;1.67;;;1.57;;
15412;SDS011;7805;49.554;7.632;2023-04-24T02:07:33;2.30;;;1.47;;
15412;SDS011;7805;49.554;7.632;2023-04-24T02:09:58;2.13;;;1.23;;
15412;SDS011;7805;49.554;7.632;2023-04-24T02:12:24;3.87;;;1.40;;
15412;SDS011;7805;49.554;7.632;2023-04-24T02:14:50;1.30;;;1.20;;
15412;SDS011;7805;49.554;7.632;2023-04-24T02:17:15;2.70;;;1.50;;
15412;SDS011;7805;49.554;7.632;2023-04-24T02:19:41;2.00;;;1.77;;
15412;SDS011;7805;49.554;7.632;2023-04-24T02:22:07;2.80;;;2.10;;
15412;SDS011;7805;49.554;7.632;2023-04-24T02:24:32;3.23;;;1.97;;
15412;SDS011;7805;49.554;7.632;2023-04-24T02:26:58;2.57;;;1.97;;
15412;SDS011;7805;49.554;7.632;2023-04-24T02:29:24;1.77;;;1.67;;
15412;SDS011;7805;49.554;7.632;2023-04-24T02:31:49;1.97;;;1.70;;
15412;SDS011;7805;49.554;7.632;2023-04-24T02:34:15;2.37;;;2.17;;
15412;SDS011;7805;49.554;7.632;2023-04-24T02:36:41;2.13;;;1.47;;
15412;SDS011;7805;49.554;7.632;2023-04-24T02:39:06;2.20;;;2.00;;
15412;SDS011;7805;49.554;7.632;2023-04-24T02:41:32;2.10;;;1.90;;
15412;SDS011;7805;49.554;7.632;2023-04-24T02:43:58;1.63;;;1.53;;
15412;SDS011;7805;49.554;7.632;2023-04-24T02:46:24;3.33;;;1.70;;
15412;SDS011;7805;49.554;7.632;2023-04-24T02:48:50;1.87;;;1.77;;
15412;SDS011;7805;49.554;7.632;2023-04-24T02:51:15;2.40;;;2.20;;
15412;SDS011;7805;49.554;7.632;2023-04-24T02:53:41;2.30;;;2.20;;
15412;SDS011;7805;49.554;7.632;2023-04-24T02:56:06;2.30;;;2.10;;
15412;SDS011;7805;49.554;7.632;2023-04-24T02:58:32;2.27;;;2.07;;
15412;SDS011;7805;49.554;7.632;2023-04-24T03:00:57;2.30;;;2.20;;
15412;SDS011;7805;49.554;7.632;2023-04-24T03:03:23;2.60;;;2.40;;
15412;SDS011;7805;49.554;7.632;2023-04-24T03:05:49;2.40;;;2.20;;
15412;SDS011;7805;49.554;7.632;2023-04-24T03:08:15;4.40;;;2.63;;
15412;SDS011;7805;49.554;7.632;2023-04-24T03:10:41;3.87;;;2.67;;
15412;SDS011;7805;49.554;7.632;2023-04-24T03:13:06;3.40;;;2.73;;
15412;SDS011;7805;49.554;7.632;2023-04-24T03:15:32;3.90;;;3.27;;
15412;SDS011;7805;49.554;7.632;2023-04-24T03:17:57;3.20;;;2.73;;
15412;SDS011;7805;49.554;7.632;2023-04-24T03:20:23;4.20;;;2.90;;
15412;SDS011;7805;49.554;7.632;2023-04-24T03:22:49;3.13;;;2.80;;
15412;SDS011;7805;49.554;7.632;2023-04-24T03:25:14;3.20;;;2.70;;
15412;SDS011;7805;49.554;7.632;2023-04-24T03:27:40;3.30;;;3.10;;
15412;SDS011;7805;49.554;7.632;2023-04-24T03:30:06;3.60;;;3.30;;
15412;SDS011;7805;49.554;7.632;2023-04-24T03:32:32;3.27;;;3.00;;
15412;SDS011;7805;49.554;7.632;2023-04-24T03:34:58;5.07;;;2.83;;
15412;SDS011;7805;49.554;7.632;2023-04-24T03:37:23;4.53;;;3.20;;
15412;SDS011;7805;49.554;7.632;2023-04-24T03:39:49;3.50;;;3.20;;
15412;SDS011;7805;49.554;7.632;2023-04-24T03:42:15;3.43;;;3.13;;
15412;SDS011;7805;49.554;7.632;2023-04-24T03:44:40;3.57;;;3.27;;
15412;SDS011;7805;49.554;7.632;2023-04-24T03:47:06;3.77;;;3.33;;
15412;SDS011;7805;49.554;7.632;2023-04-24T03:49:31;5.63;;;3.23;;
15412;SDS011;7805;49.554;7.632;2023-04-24T03:51:57;3.87;;;3.57;;
15412;SDS011;7805;49.554;7.632;2023-04-24T03:54:22;4.77;;;3.33;;
15412;SDS011;7805;49.554;7.632;2023-04-24T03:56:48;4.17;;;3.80;;
15412;SDS011;7805;49.554;7.632;2023-04-24T03:59:13;4.17;;;3.80;;
15412;SDS011;7805;49.554;7.632;2023-04-24T04:01:39;4.00;;;3.37;;
15412;SDS011;7805;49.554;7.632;2023-04-24T04:04:05;4.60;;;3.87;;
15412;SDS011;7805;49.554;7.632;2023-04-24T04:06:31;4.03;;;3.43;;
15412;SDS011;7805;49.554;7.632;2023-04-24T04:08:57;4.53;;;3.80;;
15412;SDS011;7805;49.554;7.632;2023-04-24T04:11:23;4.70;;;3.73;;
15412;SDS011;7805;49.554;7.632;2023-04-24T04:13:49;4.37;;;3.90;;
15412;SDS011;7805;49.554;7.632;2023-04-24T04:16:15;5.67;;;4.37;;
15412;SDS011;7805;49.554;7.632;2023-04-24T04:18:41;4.43;;;4.00;;
15412;SDS011;7805;49.554;7.632;2023-04-24T04:21:07;4.40;;;4.00;;
15412;SDS011;7805;49.554;7.632;2023-04-24T04:23:33;4.10;;;3.70;;
15412;SDS011;7805;49.554;7.632;2023-04-24T04:25:58;4.80;;;4.40;;
15412;SDS011;7805;49.554;7.632;2023-04-24T04:28:24;4.50;;;4.10;;
15412;SDS011;7805;49.554;7.632;2023-04-24T04:30:51;5.17;;;4.07;;
15412;SDS011;7805;49.554;7.632;2023-04-24T04:33:19;6.20;;;4.07;;
15412;SDS011;7805;49.554;7.632;2023-04-24T04:35:45;5.93;;;4.37;;
15412;SDS011;7805;49.554;7.632;2023-04-24T04:38:13;5.67;;;5.07;;
15412;SDS011;7805;49.554;7.632;2023-04-24T04:40:40;5.80;;;4.70;;
15412;SDS011;7805;49.554;7.632;2023-04-24T04:43:05;4.97;;;4.47;;
15412;SDS011;7805;49.554;7.632;2023-04-24T04:45:31;5.20;;;4.63;;
15412;SDS011;7805;49.554;7.632;2023-04-24T04:47:57;6.00;;;5.20;;
15412;SDS011;7805;49.554;7.632;2023-04-24T04:50:25;7.27;;;5.23;;
15412;SDS011;7805;49.554;7.632;2023-04-24T04:52:51;8.03;;;5.13;;
15412;SDS011;7805;49.554;7.632;2023-04-24T04:55:17;5.33;;;4.83;;
15412;SDS011;7805;49.554;7.632;2023-04-24T04:57:44;6.57;;;5.63;;
15412;SDS011;7805;49.554;7.632;2023-04-24T05:00:11;6.07;;;5.47;;
15412;SDS011;7805;49.554;7.632;2023-04-24T05:02:37;6.17;;;5.57;;
15412;SDS011;7805;49.554;7.632;2023-04-24T05:05:03;6.13;;;5.07;;
15412;SDS011;7805;49.554;7.632;2023-04-24T05:07:31;5.33;;;4.83;;
15412;SDS011;7805;49.554;7.632;2023-04-24T05:09:56;7.17;;;5.20;;
15412;SDS011;7805;49.554;7.632;2023-04-24T05:12:22;24.77;;;18.20;;
15412;SDS011;7805;49.554;7.632;2023-04-24T05:14:47;21.67;;;15.10;;
15412;SDS011;7805;49.554;7.632;2023-04-24T05:17:13;9.80;;;7.20;;
15412;SDS011;7805;49.554;7.632;2023-04-24T05:19:38;8.53;;;5.63;;
15412;SDS011;7805;49.554;7.632;2023-04-24T05:22:04;6.70;;;5.00;;
15412;SDS011;7805;49.554;7.632;2023-04-24T05:24:32;5.17;;;4.57;;
15412;SDS011;7805;49.554;7.632;2023-04-24T05:26:58;6.33;;;4.03;;
15412;SDS011;7805;49.554;7.632;2023-04-24T05:29:24;5.67;;;5.00;;
15412;SDS011;7805;49.554;7.632;2023-04-24T05:31:51;5.20;;;4.70;;
15412;SDS011;7805;49.554;7.632;2023-04-24T05:34:17;6.70;;;6.10;;
15412;SDS011;7805;49.554;7.632;2023-04-24T05:36:43;6.53;;;5.87;;
15412;SDS011;7805;49.554;7.632;2023-04-24T05:39:08;5.63;;;5.03;;
15412;SDS011;7805;49.554;7.632;2023-04-24T05:41:34;6.97;;;5.43;;
15412;SDS011;7805;49.554;7.632;2023-04-24T05:44:00;7.40;;;5.20;;
15412;SDS011;7805;49.554;7.632;2023-04-24T05:46:25;6.57;;;5.23;;
15412;SDS011;7805;49.554;7.632;2023-04-24T05:48:51;9.67;;;6.63;;
15412;SDS011;7805;49.554;7.632;2023-04-24T05:51:16;7.00;;;6.00;;
15412;SDS011;7805;49.554;7.632;2023-04-24T05:53:42;5.97;;;5.47;;
15412;SDS011;7805;49.554;7.632;2023-04-24T05:56:08;5.67;;;5.23;;
15412;SDS011;7805;49.554;7.632;2023-04-24T05:58:34;5.70;;;5.10;;
15412;SDS011;7805;49.554;7.632;2023-04-24T06:00:59;5.93;;;5.43;;
15412;SDS011;7805;49.554;7.632;2023-04-24T06:03:26;5.57;;;5.03;;
15412;SDS011;7805;49.554;7.632;2023-04-24T06:05:52;8.47;;;5.97;;
15412;SDS011;7805;49.554;7.632;2023-04-24T06:08:18;7.10;;;5.57;;
15412;SDS011;7805;49.554;7.632;2023-04-24T06:10:43;6.07;;;5.00;;
15412;SDS011;7805;49.554;7.632;2023-04-24T06:13:09;5.20;;;4.80;;
15412;SDS011;7805;49.554;7.632;2023-04-24T06:15:36;6.67;;;5.17;;
15412;SDS011;7805;49.554;7.632;2023-04-24T06:18:02;9.30;;;5.20;;
15412;SDS011;7805;49.554;7.632;2023-04-24T06:20:28;5.80;;;4.80;;
15412;SDS011;7805;49.554;7.632;2023-04-24T06:22:54;8.10;;;5.00;;
15412;SDS011;7805;49.554;7.632;2023-04-24T06:25:19;4.93;;;4.43;;
15412;SDS011;7805;49.554;7.632;2023-04-24T06:27:45;5.17;;;4.67;;
15412;SDS011;7805;49.554;7.632;2023-04-24T06:30:11;5.13;;;4.63;;
15412;SDS011;7805;49.554;7.632;2023-04-24T06:32:37;5.93;;;4.13;;
15412;SDS011;7805;49.554;7.632;2023-04-24T06:35:03;5.70;;;4.97;;
15412;SDS011;7805;49.554;7.632;2023-04-24T06:37:29;4.30;;;3.90;;
15412;SDS011;7805;49.554;7.632;2023-04-24T06:39:55;4.90;;;3.70;;
15412;SDS011;7805;49.554;7.632;2023-04-24T06:42:20;3.87;;;3.57;;
15412;SDS011;7805;49.554;7.632;2023-04-24T06:44:46;4.33;;;3.20;;
15412;SDS011;7805;49.554;7.632;2023-04-24T06:47:12;3.87;;;3.00;;
15412;SDS011;7805;49.554;7.632;2023-04-24T06:49:38;4.33;;;3.83;;
15412;SDS011;7805;49.554;7.632;2023-04-24T06:52:04;4.90;;;3.40;;
15412;SDS011;7805;49.554;7.632;2023-04-24T06:54:30;7.40;;;4.07;;
15412;SDS011;7805;49.554;7.632;2023-04-24T06:56:56;5.93;;;4.73;;
15412;SDS011;7805;49.554;7.632;2023-04-24T06:59:23;5.17;;;4.67;;
15412;SDS011;7805;49.554;7.632;2023-04-24T07:01:49;4.60;;;4.20;;
15412;SDS011;7805;49.554;7.632;2023-04-24T07:04:16;4.17;;;3.90;;
15412;SDS011;7805;49.554;7.632;2023-04-24T07:06:42;6.70;;;6.10;;
15412;SDS011;7805;49.554;7.632;2023-04-24T07:09:08;4.17;;;3.77;;
15412;SDS011;7805;49.554;7.632;2023-04-24T07:11:34;4.07;;;3.60;;
15412;SDS011;7805;49.554;7.632;2023-04-24T07:14:01;4.03;;;3.73;;
15412;SDS011;7805;49.554;7.632;2023-04-24T07:16:27;3.63;;;3.33;;
15412;SDS011;7805;49.554;7.632;2023-04-24T07:18:53;4.07;;;3.70;;
15412;SDS011;7805;49.554;7.632;2023-04-24T07:21:18;4.13;;;3.73;;
15412;SDS011;7805;49.554;7.632;2023-04-24T07:23:44;5.93;;;4.20;;
15412;SDS011;7805;49.554;7.632;2023-04-24T07:26:10;4.20;;;3.90;;
15412;SDS011;7805;49.554;7.632;2023-04-24T07:28:35;3.73;;;3.43;;
15412;SDS011;7805;49.554;7.632;2023-04-24T07:31:01;4.23;;;3.83;;
15412;SDS011;7805;49.554;7.632;2023-04-24T07:33:26;4.70;;;4.30;;
15412;SDS011;7805;49.554;7.632;2023-04-24T07:35:52;4.43;;;4.03;;
15412;SDS011;7805;49.554;7.632;2023-04-24T07:38:18;5.60;;;4.00;;
15412;SDS011;7805;49.554;7.632;2023-04-24T07:40:47;6.97;;;4.03;;
15412;SDS011;7805;49.554;7.632;2023-04-24T07:43:13;4.30;;;3.90;;
15412;SDS011;7805;49.554;7.632;2023-04-24T07:45:39;4.57;;;3.87;;
15412;SDS011;7805;49.554;7.632;2023-04-24T07:48:05;4.53;;;3.60;;
15412;SDS011;7805;49.554;7.632;2023-04-24T07:50:31;4.40;;;3.40;;
15412;SDS011;7805;49.554;7.632;2023-04-24T07:52:57;3.30;;;3.00;;
15412;SDS011;7805;49.554;7.632;2023-04-24T07:55:23;4.10;;;3.73;;
15412;SDS011;7805;49.554;7.632;2023-04-24T07:57:48;5.80;;;3.90;;
15412;SDS011;7805;49.554;7.632;2023-04-24T08:00:14;3.77;;;3.50;;
15412;SDS011;7805;49.554;7.632;2023-04-24T08:02:40;4.20;;;3.67;;
15412;SDS011;7805;49.554;7.632;2023-04-24T08:05:06;4.90;;;4.23;;
15412;SDS011;7805;49.554;7.632;2023-04-24T08:07:32;4.80;;;4.07;;
15412;SDS011;7805;49.554;7.632;2023-04-24T08:09:58;4.13;;;3.70;;
15412;SDS011;7805;49.554;7.632;2023-04-24T08:12:24;4.37;;;3.97;;
15412;SDS011;7805;49.554;7.632;2023-04-24T08:14:50;4.30;;;3.90;;
15412;SDS011;7805;49.554;7.632;2023-04-24T08:17:16;4.50;;;4.10;;
15412;SDS011;7805;49.554;7.632;2023-04-24T08:19:42;3.87;;;3.57;;
15412;SDS011;7805;49.554;7.632;2023-04-24T08:22:12;5.30;;;3.97;;
15412;SDS011;7805;49.554;7.632;2023-04-24T08:24:38;5.27;;;4.30;;
15412;SDS011;7805;49.554;7.632;2023-04-24T08:27:03;6.17;;;4.43;;
15412;SDS011;7805;49.554;7.632;2023-04-24T08:29:29;5.97;;;5.33;;
15412;SDS011;7805;49.554;7.632;2023-04-24T08:31:55;4.83;;;4.23;;
15412;SDS011;7805;49.554;7.632;2023-04-24T08:34:21;4.67;;;4.27;;
15412;SDS011;7805;49.554;7.632;2023-04-24T08:36:46;7.63;;;5.40;;
15412;SDS011;7805;49.554;7.632;2023-04-24T08:39:12;5.93;;;5.30;;
15412;SDS011;7805;49.554;7.632;2023-04-24T08:41:39;6.90;;;5.90;;
15412;SDS011;7805;49.554;7.632;2023-04-24T08:44:07;4.73;;;4.33;;
15412;SDS011;7805;49.554;7.632;2023-04-24T08:46:34;8.80;;;5.77;;
15412;SDS011;7805;49.554;7.632;2023-04-24T08:49:01;7.73;;;5.50;;
15412;SDS011;7805;49.554;7.632;2023-04-24T08:51:28;5.73;;;5.10;;
15412;SDS011;7805;49.554;7.632;2023-04-24T08:53:56;7.00;;;5.83;;
15412;SDS011;7805;49.554;7.632;2023-04-24T08:56:22;13.70;;;10.37;;
15412;SDS011;7805;49.554;7.632;2023-04-24T08:58:49;7.00;;;6.23;;
15412;SDS011;7805;49.554;7.632;2023-04-24T09:01:21;6.27;;;5.73;;
15412;SDS011;7805;49.554;7.632;2023-04-24T09:03:50;7.17;;;6.53;;
15412;SDS011;7805;49.554;7.632;2023-04-24T09:06:18;9.40;;;6.50;;
15412;SDS011;7805;49.554;7.632;2023-04-24T09:08:46;7.07;;;6.37;;
15412;SDS011;7805;49.554;7.632;2023-04-24T09:11:16;6.20;;;4.97;;
15412;SDS011;7805;49.554;7.632;2023-04-24T09:13:42;16.87;;;5.80;;
15412;SDS011;7805;49.554;7.632;2023-04-24T09:16:08;6.20;;;5.50;;
15412;SDS011;7805;49.554;7.632;2023-04-24T09:18:34;9.27;;;5.13;;
15412;SDS011;7805;49.554;7.632;2023-04-24T09:21:00;6.00;;;4.70;;
15412;SDS011;7805;49.554;7.632;2023-04-24T09:23:32;4.67;;;4.27;;
15412;SDS011;7805;49.554;7.632;2023-04-24T09:25:58;4.77;;;4.47;;
15412;SDS011;7805;49.554;7.632;2023-04-24T09:31:07;6.10;;;4.80;;
15412;SDS011;7805;49.554;7.632;2023-04-24T09:33:34;5.23;;;4.80;;
15412;SDS011;7805;49.554;7.632;2023-04-24T09:36:01;5.17;;;4.40;;
15412;SDS011;7805;49.554;7.632;2023-04-24T09:38:35;7.00;;;4.90;;
15412;SDS011;7805;49.554;7.632;2023-04-24T09:41:02;6.00;;;5.57;;
15412;SDS011;7805;49.554;7.632;2023-04-24T09:43:32;5.43;;;4.70;;
15412;SDS011;7805;49.554;7.632;2023-04-24T09:45:59;8.20;;;5.23;;
15412;SDS011;7805;49.554;7.632;2023-04-24T09:48:30;5.90;;;5.10;;
15412;SDS011;7805;49.554;7.632;2023-04-24T09:51:00;6.73;;;4.87;;
15412;SDS011;7805;49.554;7.632;2023-04-24T09:53:28;5.83;;;5.20;;
15412;SDS011;7805;49.554;7.632;2023-04-24T09:55:55;6.23;;;4.90;;
15412;SDS011;7805;49.554;7.632;2023-04-24T09:58:29;6.80;;;5.23;;
15412;SDS011;7805;49.554;7.632;2023-04-24T10:00:55;6.00;;;5.40;;
15412;SDS011;7805;49.554;7.632;2023-04-24T10:03:25;6.43;;;5.60;;
15412;SDS011;7805;49.554;7.632;2023-04-24T10:05:54;7.33;;;6.00;;
15412;SDS011;7805;49.554;7.632;2023-04-24T10:08:30;5.87;;;5.33;;
15412;SDS011;7805;49.554;7.632;2023-04-24T10:10:59;7.30;;;6.27;;
15412;SDS011;7805;49.554;7.632;2023-04-24T10:13:24;6.20;;;5.50;;
15412;SDS011;7805;49.554;7.632;2023-04-24T10:15:50;6.70;;;6.00;;
15412;SDS011;7805;49.554;7.632;2023-04-24T10:18:16;7.23;;;6.23;;
15412;SDS011;7805;49.554;7.632;2023-04-24T10:20:42;6.60;;;5.70;;
15412;SDS011;7805;49.554;7.632;2023-04-24T10:23:08;12.70;;;7.60;;
15412;SDS011;7805;49.554;7.632;2023-04-24T10:25:34;6.57;;;5.87;;
15412;SDS011;7805;49.554;7.632;2023-04-24T10:28:02;6.50;;;5.90;;
15412;SDS011;7805;49.554;7.632;2023-04-24T10:30:33;6.00;;;5.40;;
15412;SDS011;7805;49.554;7.632;2023-04-24T10:33:00;7.70;;;6.17;;
15412;SDS011;7805;49.554;7.632;2023-04-24T10:35:26;12.53;;;6.73;;
15412;SDS011;7805;49.554;7.632;2023-04-24T10:37:57;5.67;;;5.27;;
15412;SDS011;7805;49.554;7.632;2023-04-24T10:40:27;7.47;;;6.33;;
15412;SDS011;7805;49.554;7.632;2023-04-24T10:42:56;8.20;;;5.70;;
15412;SDS011;7805;49.554;7.632;2023-04-24T10:45:22;17.77;;;11.57;;
15412;SDS011;7805;49.554;7.632;2023-04-24T10:47:58;5.97;;;5.43;;
15412;SDS011;7805;49.554;7.632;2023-04-24T10:50:30;6.73;;;5.13;;
15412;SDS011;7805;49.554;7.632;2023-04-24T10:53:29;8.23;;;5.30;;
15412;SDS011;7805;49.554;7.632;2023-04-24T11:01:32;11.33;;;6.67;;
15412;SDS011;7805;49.554;7.632;2023-04-24T11:04:02;6.80;;;6.10;;
15412;SDS011;7805;49.554;7.632;2023-04-24T11:06:37;8.47;;;6.17;;
15412;SDS011;7805;49.554;7.632;2023-04-24T11:09:09;6.93;;;5.30;;
15412;SDS011;7805;49.554;7.632;2023-04-24T11:11:38;7.57;;;5.30;;
15412;SDS011;7805;49.554;7.632;2023-04-24T11:14:10;6.13;;;4.93;;
15412;SDS011;7805;49.554;7.632;2023-04-24T11:16:59;8.13;;;5.70;;
15412;SDS011;7805;49.554;7.632;2023-04-24T11:19:25;7.10;;;6.40;;
15412;SDS011;7805;49.554;7.632;2023-04-24T11:22:00;7.33;;;6.27;;
15412;SDS011;7805;49.554;7.632;2023-04-24T11:26:57;6.43;;;5.27;;
15412;SDS011;7805;49.554;7.632;2023-04-24T11:32:15;9.40;;;5.97;;
15412;SDS011;7805;49.554;7.632;2023-04-24T11:34:47;7.30;;;5.23;;
15412;SDS011;7805;49.554;7.632;2023-04-24T11:37:15;5.13;;;4.57;;
15412;SDS011;7805;49.554;7.632;2023-04-24T11:39:40;8.10;;;5.90;;
15412;SDS011;7805;49.554;7.632;2023-04-24T11:42:06;9.77;;;6.17;;
15412;SDS011;7805;49.554;7.632;2023-04-24T11:44:33;8.93;;;5.93;;
15412;SDS011;7805;49.554;7.632;2023-04-24T11:47:02;8.37;;;5.33;;
15412;SDS011;7805;49.554;7.632;2023-04-24T11:49:32;10.97;;;6.47;;
15412;SDS011;7805;49.554;7.632;2023-04-24T11:51:57;18.13;;;10.93;;
15412;SDS011;7805;49.554;7.632;2023-04-24T11:54:25;9.47;;;7.87;;
15412;SDS011;7805;49.554;7.632;2023-04-24T11:56:50;12.83;;;6.63;;
15412;SDS011;7805;49.554;7.632;2023-04-24T11:59:16;7.30;;;6.30;;
15412;SDS011;7805;49.554;7.632;2023-04-24T12:01:45;7.23;;;6.07;;
15412;SDS011;7805;49.554;7.632;2023-04-24T12:04:11;9.37;;;6.63;;
15412;SDS011;7805;49.554;7.632;2023-04-24T12:06:37;6.97;;;5.67;;
15412;SDS011;7805;49.554;7.632;2023-04-24T12:09:03;8.77;;;6.53;;
15412;SDS011;7805;49.554;7.632;2023-04-24T12:11:29;7.70;;;6.80;;
15412;SDS011;7805;49.554;7.632;2023-04-24T12:13:55;6.20;;;5.60;;
15412;SDS011;7805;49.554;7.632;2023-04-24T12:16:20;5.47;;;4.93;;
15412;SDS011;7805;49.554;7.632;2023-04-24T12:18:46;7.63;;;5.90;;
15412;SDS011;7805;49.554;7.632;2023-04-24T12:21:23;6.27;;;5.27;;
15412;SDS011;7805;49.554;7.632;2023-04-24T12:23:54;5.97;;;5.37;;
15412;SDS011;7805;49.554;7.632;2023-04-24T12:26:20;8.57;;;5.63;;
15412;SDS011;7805;49.554;7.632;2023-04-24T12:28:47;6.10;;;4.93;;
15412;SDS011;7805;49.554;7.632;2023-04-24T12:31:14;6.60;;;5.37;;
15412;SDS011;7805;49.554;7.632;2023-04-24T12:33:41;9.63;;;6.10;;
15412;SDS011;7805;49.554;7.632;2023-04-24T12:36:09;6.00;;;5.00;;
15412;SDS011;7805;49.554;7.632;2023-04-24T12:38:35;5.50;;;5.00;;
15412;SDS011;7805;49.554;7.632;2023-04-24T12:41:06;6.67;;;4.73;;
15412;SDS011;7805;49.554;7.632;2023-04-24T12:43:33;5.00;;;4.60;;
15412;SDS011;7805;49.554;7.632;2023-04-24T12:45:59;5.60;;;4.97;;
15412;SDS011;7805;49.554;7.632;2023-04-24T12:48:25;7.30;;;6.17;;
15412;SDS011;7805;49.554;7.632;2023-04-24T12:50:51;5.80;;;5.17;;
15412;SDS011;7805;49.554;7.632;2023-04-24T12:53:17;5.77;;;4.67;;
15412;SDS011;7805;49.554;7.632;2023-04-24T12:55:42;5.00;;;4.50;;
15412;SDS011;7805;49.554;7.632;2023-04-24T12:58:09;8.87;;;5.30;;
15412;SDS011;7805;49.554;7.632;2023-04-24T13:00:35;8.27;;;5.83;;
15412;SDS011;7805;49.554;7.632;2023-04-24T13:03:01;9.13;;;6.10;;
15412;SDS011;7805;49.554;7.632;2023-04-24T13:05:27;7.03;;;4.80;;
15412;SDS011;7805;49.554;7.632;2023-04-24T13:07:52;5.33;;;4.80;;
15412;SDS011;7805;49.554;7.632;2023-04-24T13:10:18;5.50;;;4.70;;
15412;SDS011;7805;49.554;7.632;2023-04-24T13:12:44;8.70;;;4.70;;
15412;SDS011;7805;49.554;7.632;2023-04-24T13:15:11;4.07;;;3.03;;
15412;SDS011;7805;49.554;7.632;2023-04-24T13:17:37;3.80;;;3.50;;
15412;SDS011;7805;49.554;7.632;2023-04-24T13:20:03;4.27;;;3.67;;
15412;SDS011;7805;49.554;7.632;2023-04-24T13:22:30;3.83;;;3.50;;
15412;SDS011;7805;49.554;7.632;2023-04-24T13:24:55;4.87;;;4.23;;
15412;SDS011;7805;49.554;7.632;2023-04-24T13:27:22;5.47;;;4.30;;
15412;SDS011;7805;49.554;7.632;2023-04-24T13:29:47;4.87;;;4.20;;
15412;SDS011;7805;49.554;7.632;2023-04-24T13:32:13;6.47;;;5.07;;
15412;SDS011;7805;49.554;7.632;2023-04-24T13:34:38;5.30;;;4.37;;
15412;SDS011;7805;49.554;7.632;2023-04-24T13:37:04;5.57;;;4.17;;
15412;SDS011;7805;49.554;7.632;2023-04-24T13:39:30;6.67;;;4.23;;
15412;SDS011;7805;49.554;7.632;2023-04-24T13:41:56;5.60;;;4.60;;
15412;SDS011;7805;49.554;7.632;2023-04-24T13:44:22;5.83;;;4.57;;
15412;SDS011;7805;49.554;7.632;2023-04-24T13:46:50;7.37;;;5.50;;
15412;SDS011;7805;49.554;7.632;2023-04-24T13:49:18;4.90;;;4.50;;
15412;SDS011;7805;49.554;7.632;2023-04-24T13:51:44;5.70;;;5.03;;
15412;SDS011;7805;49.554;7.632;2023-04-24T13:54:10;6.23;;;5.27;;
15412;SDS011;7805;49.554;7.632;2023-04-24T13:56:36;6.03;;;4.70;;
15412;SDS011;7805;49.554;7.632;2023-04-24T13:59:02;6.70;;;5.20;;
15412;SDS011;7805;49.554;7.632;2023-04-24T14:01:27;6.30;;;5.70;;
15412;SDS011;7805;49.554;7.632;2023-04-24T14:03:53;6.77;;;5.67;;
15412;SDS011;7805;49.554;7.632;2023-04-24T14:06:20;5.93;;;5.43;;
15412;SDS011;7805;49.554;7.632;2023-04-24T14:08:46;6.60;;;6.00;;
15412;SDS011;7805;49.554;7.632;2023-04-24T14:11:12;7.27;;;6.57;;
15412;SDS011;7805;49.554;7.632;2023-04-24T14:13:38;6.13;;;5.53;;
15412;SDS011;7805;49.554;7.632;2023-04-24T14:16:05;7.37;;;5.90;;
15412;SDS011;7805;49.554;7.632;2023-04-24T14:18:31;5.10;;;4.60;;
15412;SDS011;7805;49.554;7.632;2023-04-24T14:20:57;5.80;;;5.30;;
15412;SDS011;7805;49.554;7.632;2023-04-24T14:23:22;9.23;;;5.43;;
15412;SDS011;7805;49.554;7.632;2023-04-24T14:25:48;8.23;;;7.37;;
15412;SDS011;7805;49.554;7.632;2023-04-24T14:28:17;5.27;;;4.20;;
15412;SDS011;7805;49.554;7.632;2023-04-24T14:30:46;5.07;;;4.57;;
15412;SDS011;7805;49.554;7.632;2023-04-24T14:33:12;4.03;;;3.63;;
15412;SDS011;7805;49.554;7.632;2023-04-24T14:35:38;6.53;;;4.30;;
15412;SDS011;7805;49.554;7.632;2023-04-24T14:38:05;5.47;;;3.70;;
15412;SDS011;7805;49.554;7.632;2023-04-24T14:40:31;6.23;;;4.43;;
15412;SDS011;7805;49.554;7.632;2023-04-24T14:42:57;6.20;;;5.10;;
15412;SDS011;7805;49.554;7.632;2023-04-24T14:45:23;6.67;;;5.53;;
15412;SDS011;7805;49.554;7.632;2023-04-24T14:47:49;7.00;;;6.40;;
15412;SDS011;7805;49.554;7.632;2023-04-24T14:50:15;6.80;;;6.17;;
15412;SDS011;7805;49.554;7.632;2023-04-24T14:52:40;6.37;;;5.77;;
15412;SDS011;7805;49.554;7.632;2023-04-24T14:55:06;8.07;;;7.00;;
15412;SDS011;7805;49.554;7.632;2023-04-24T14:57:32;6.53;;;6.03;;
15412;SDS011;7805;49.554;7.632;2023-04-24T14:59:58;6.03;;;5.30;;
15412;SDS011;7805;49.554;7.632;2023-04-24T15:02:24;5.40;;;4.87;;
15412;SDS011;7805;49.554;7.632;2023-04-24T15:04:50;6.03;;;5.43;;
15412;SDS011;7805;49.554;7.632;2023-04-24T15:07:15;5.83;;;5.33;;
15412;SDS011;7805;49.554;7.632;2023-04-24T15:09:41;6.10;;;5.50;;